Terminal Aerodrome Forecast
Issued by NWS Charleston, WV

Current Version | Previous Version | Graphics & Text | Print | Product List | Glossary On
Versions: 1 2 3 4 5 6 7 8 9 10 11 12 13 14 15 16 17 18 19 20 21 22 23
000
FTUS41 KRLX 151300 AAB
TAFHTS
TAF AMD
KHTS 151359Z 1514/1612 00000KT 1/4SM FG VV001
      TEMPO 1514/1515 3SM BR BKN001
     FM151500 00000KT 6SM BR FEW090
     FM151600 VRB03KT P6SM FEW035
     FM160600 28004KT 5SM BR BKN040=

USA.gov is the U.S. government's official web portal to all federal, state and local government web resources and services.